Time;durP1;ratioP1;P1;durP2;ratioP2;P2;SDS_P1;SDS_P2;PMS_P1;PMS_P2;Temp;Humidity;BMP_temperature;BMP_pressure;BME280_temperature;BME280_humidity;BME280_pressure;Samples;Min_cycle;Max_cycle;Signal;HPM_P1;HPM_P2
2022/09/23 00:01:19;;;;;;;7.28;5.95;;;;;;;4.24;95.77;99014.06;4185790;28;20036;-71
2022/09/23 00:03:20;;;;;;;10.15;6.30;;;;;;;4.18;96.49;99013.41;4185219;28;20125;-71
2022/09/23 00:05:20;;;;;;;7.55;5.88;;;;;;;4.17;97.23;99011.81;4186234;28;20311;-71
2022/09/23 00:07:21;;;;;;;10.05;5.90;;;;;;;4.16;96.87;99020.34;4185989;28;20477;-71
2022/09/23 00:09:21;;;;;;;9.32;6.57;;;;;;;4.12;96.98;99016.63;4185458;28;20040;-71
2022/09/23 00:11:24;;;;;;;6.80;5.38;;;;;;;4.13;96.82;99015.50;4185937;28;20519;-71
2022/09/23 00:13:24;;;;;;;7.32;5.72;;;;;;;4.13;96.82;99021.78;4186286;28;20087;-71
2022/09/23 00:15:25;;;;;;;5.80;5.10;;;;;;;4.18;97.05;99020.84;4185715;28;20540;-71
2022/09/23 00:17:26;;;;;;;9.18;5.60;;;;;;;4.13;96.44;99012.78;4185848;28;20372;-71
2022/09/23 00:19:26;;;;;;;8.93;5.40;;;;;;;4.10;95.76;99013.41;4185451;28;20512;-71
2022/09/23 00:21:27;;;;;;;9.20;6.07;;;;;;;4.09;96.59;99012.63;4186124;28;20361;-71
2022/09/23 00:23:27;;;;;;;8.55;5.80;;;;;;;4.08;96.44;99019.22;4184757;28;20051;-71
2022/09/23 00:25:28;;;;;;;8.32;6.15;;;;;;;4.06;95.90;99005.06;4185551;28;20383;-71
2022/09/23 00:27:29;;;;;;;11.27;5.90;;;;;;;4.01;96.34;98996.19;4187419;28;20044;-71
2022/09/23 00:29:30;;;;;;;10.73;6.22;;;;;;;4.03;95.34;99008.41;4185444;28;20253;-71
2022/09/23 00:31:31;;;;;;;8.00;6.38;;;;;;;3.97;95.54;99006.97;4185874;28;20056;-71
2022/09/23 00:33:31;;;;;;;12.40;7.10;;;;;;;3.93;96.20;99012.28;4185334;28;20459;-71
2022/09/23 00:35:31;;;;;;;13.60;6.00;;;;;;;3.88;97.45;99011.63;4185211;28;20052;-71
2022/09/23 00:37:32;;;;;;;9.77;6.47;;;;;;;3.85;97.52;99012.28;4187775;28;20732;-71
2022/09/23 00:39:32;;;;;;;8.60;5.53;;;;;;;3.83;97.50;99009.88;4188495;28;20366;-71
2022/09/23 00:41:34;;;;;;;10.77;6.25;;;;;;;3.81;97.58;99006.66;4188876;28;20065;-71
2022/09/23 00:43:50;;;;;;;8.73;6.47;;;;;;;3.82;97.12;98996.50;4188756;28;20115;-71
2022/09/23 00:45:50;;;;;;;12.30;6.03;;;;;;;3.83;97.78;99009.06;4188593;28;20316;-71
2022/09/23 00:47:57;;;;;;;12.38;6.57;;;;;;;3.77;97.93;98997.47;4188575;28;20048;-71
2022/09/23 00:50:04;;;;;;;10.45;5.90;;;;;;;3.77;98.79;98993.91;4188343;28;20048;-71
2022/09/23 00:52:11;;;;;;;13.07;6.68;;;;;;;3.73;97.93;98984.75;4188873;28;20544;-71
2022/09/23 00:54:11;;;;;;;7.55;5.78;;;;;;;3.71;98.28;98997.94;4189165;28;20833;-71
2022/09/23 00:56:12;;;;;;;11.98;5.95;;;;;;;3.68;99.66;98996.66;4188857;28;20029;-71
2022/09/23 00:58:18;;;;;;;8.88;5.90;;;;;;;3.66;99.18;98990.69;4188962;28;20364;-71
2022/09/23 01:00:20;;;;;;;8.60;5.30;;;;;;;3.64;99.40;98999.22;4188081;28;20033;-71
2022/09/23 01:02:20;;;;;;;8.27;5.28;;;;;;;3.62;99.48;98989.72;4188924;28;20388;-71
2022/09/23 01:04:23;;;;;;;11.07;6.93;;;;;;;3.61;100.00;98996.31;4188128;28;20044;-71
2022/09/23 01:06:25;;;;;;;9.27;6.50;;;;;;;3.59;100.00;98984.88;4188812;28;20044;-71
2022/09/23 01:08:26;;;;;;;9.57;7.13;;;;;;;3.56;99.60;98982.78;4187493;28;20091;-71
2022/09/23 01:10:34;;;;;;;7.97;6.20;;;;;;;3.56;99.80;98972.66;4188785;28;20077;-71
2022/09/23 01:12:50;;;;;;;10.35;6.18;;;;;;;3.57;97.68;98978.94;4189482;28;20215;-71
2022/09/23 01:15:09;;;;;;;9.57;6.20;;;;;;;3.56;97.84;98977.31;4188441;28;20067;-71
2022/09/23 01:17:19;;;;;;;7.15;5.63;;;;;;;3.56;97.37;98974.59;4188297;28;20844;-71
2022/09/23 01:19:37;;;;;;;7.03;5.38;;;;;;;3.54;97.74;98965.88;4188414;28;20377;-71
2022/09/23 01:22:07;;;;;;;8.07;5.80;;;;;;;3.53;98.66;98967.00;4188509;28;20434;-71
2022/09/23 01:24:26;;;;;;;7.10;5.53;;;;;;;3.55;99.39;98970.22;4187758;28;20044;-71
2022/09/23 01:26:57;;;;;;;16.85;5.47;;;;;;;3.54;97.38;98965.88;4188460;28;20115;-71
2022/09/23 01:29:27;;;;;;;7.50;5.88;;;;;;;3.52;98.09;98962.66;4187722;28;20403;-71
2022/09/23 01:31:27;;;;;;;10.23;6.75;;;;;;;3.48;97.95;98958.97;4187756;28;20178;-71
2022/09/23 01:33:27;;;;;;;10.15;6.28;;;;;;;3.41;99.53;98964.91;4188106;28;20083;-71
2022/09/23 01:35:34;;;;;;;6.78;5.45;;;;;;;3.38;99.90;98960.84;4188140;28;20071;-71
2022/09/23 01:37:45;;;;;;;9.65;6.15;;;;;;;3.28;100.00;98954.88;4187425;28;20049;-71
2022/09/23 01:40:09;;;;;;;8.63;6.15;;;;;;;3.26;100.00;98962.59;4187778;28;20044;-71
2022/09/23 01:42:16;;;;;;;11.32;8.18;;;;;;;3.21;100.00;98955.34;4178189;28;20048;-71
2022/09/23 01:44:24;;;;;;;11.32;8.45;;;;;;;3.19;100.00;98954.88;4188125;28;20036;-71
2022/09/23 01:47:01;;;;;;;9.52;8.00;;;;;;;3.21;100.00;98958.09;4187666;28;20504;-71
2022/09/23 01:49:11;;;;;;;8.02;6.28;;;;;;;3.21;100.00;98958.09;4183473;28;20040;-71
2022/09/23 01:51:17;;;;;;;7.97;6.65;;;;;;;3.17;100.00;98956.31;4188243;28;20456;-71
2022/09/23 01:53:25;;;;;;;7.25;6.35;;;;;;;3.15;100.00;98948.44;4187889;28;20495;-71
2022/09/23 01:55:37;;;;;;;10.68;6.57;;;;;;;3.09;100.00;98945.03;4188312;28;20483;-70
2022/09/23 01:57:47;;;;;;;11.10;7.65;;;;;;;3.11;100.00;98950.19;4188065;28;20082;-70
2022/09/23 01:59:54;;;;;;;9.25;6.82;;;;;;;3.07;100.00;98943.75;4186327;28;20049;-71
2022/09/23 02:02:07;;;;;;;13.32;8.38;;;;;;;3.02;100.00;98955.63;4188408;28;20120;-70
2022/09/23 02:04:31;;;;;;;10.23;7.93;;;;;;;3.00;100.00;98940.66;4187092;28;20041;-71
2022/09/23 02:06:43;;;;;;;12.18;7.05;;;;;;;2.96;100.00;98951.41;4187934;28;20067;-69
2022/09/23 02:08:46;;;;;;;12.65;7.78;;;;;;;2.96;100.00;98950.59;4186424;28;20129;-71
2022/09/23 02:10:52;;;;;;;9.27;6.72;;;;;;;2.94;100.00;98953.66;4188028;28;20526;-71
2022/09/23 02:12:56;;;;;;;14.07;8.75;;;;;;;2.92;100.00;98946.91;4186076;28;20464;-70
2022/09/23 02:15:05;;;;;;;14.57;8.10;;;;;;;2.93;100.00;98948.50;4187235;28;20049;-71
2022/09/23 02:17:10;;;;;;;11.98;7.45;;;;;;;2.92;100.00;98950.44;4187479;28;20471;-71
2022/09/23 02:19:19;;;;;;;8.30;6.70;;;;;;;2.92;100.00;98949.63;4187444;28;20060;-70
2022/09/23 02:21:24;;;;;;;9.52;7.00;;;;;;;2.88;100.00;98943.97;4187358;28;20314;-70
2022/09/23 02:23:28;;;;;;;8.10;7.30;;;;;;;2.87;100.00;98952.50;4187735;28;20107;-70
2022/09/23 02:25:40;;;;;;;7.80;6.70;;;;;;;2.83;100.00;98938.69;4187193;28;20037;-70
2022/09/23 02:27:50;;;;;;;12.73;7.40;;;;;;;2.80;100.00;98942.03;4187547;28;20052;-70
2022/09/23 02:30:02;;;;;;;8.40;6.18;;;;;;;2.76;100.00;98936.41;4185972;28;20080;-70
2022/09/23 02:32:27;;;;;;;7.40;6.05;;;;;;;2.76;100.00;98936.41;4186787;28;20392;-71
2022/09/23 02:34:50;;;;;;;8.70;6.60;;;;;;;2.76;100.00;98941.84;4186702;28;20040;-71
2022/09/23 02:36:53;;;;;;;8.15;7.00;;;;;;;2.75;100.00;98937.53;4187003;28;20604;-70
2022/09/23 02:39:03;;;;;;;9.38;6.65;;;;;;;2.75;100.00;98940.25;4187150;28;20131;-70
2022/09/23 02:41:22;;;;;;;8.02;7.13;;;;;;;2.75;100.00;98939.44;4187311;28;20476;-71
2022/09/23 02:43:47;;;;;;;8.50;6.25;;;;;;;2.72;100.00;98937.31;4187042;28;20457;-70
2022/09/23 02:45:49;;;;;;;10.15;6.32;;;;;;;2.71;100.00;98932.97;4187157;28;20611;-70
2022/09/23 02:47:55;;;;;;;8.80;6.10;;;;;;;2.68;100.00;98931.69;4187384;28;20052;-70
2022/09/23 02:49:56;;;;;;;6.35;5.55;;;;;;;2.67;100.00;98921.91;4186408;28;20724;-70
2022/09/23 02:51:59;;;;;;;12.45;7.45;;;;;;;2.63;100.00;98918.16;4187480;28;20075;-70
2022/09/23 02:54:02;;;;;;;9.57;5.95;;;;;;;2.62;100.00;98918.50;4186917;28;20048;-71
2022/09/23 02:56:14;;;;;;;7.57;5.90;;;;;;;2.56;100.00;98917.81;4187042;28;20048;-70
2022/09/23 02:58:16;;;;;;;8.98;7.32;;;;;;;2.53;100.00;98921.97;4186675;28;20082;-70
2022/09/23 03:00:16;;;;;;;7.00;6.30;;;;;;;2.52;100.00;98914.09;4186030;28;20033;-71
2022/09/23 03:02:41;;;;;;;8.10;6.40;;;;;;;2.53;100.00;98911.06;4187012;28;20033;-70
2022/09/23 03:04:42;;;;;;;7.40;6.40;;;;;;;2.53;100.00;98918.44;4186797;28;20373;-70
2022/09/23 03:06:49;;;;;;;8.45;6.53;;;;;;;2.51;100.00;98910.56;4187092;28;20097;-71
2022/09/23 03:08:59;;;;;;;8.05;6.22;;;;;;;2.50;100.00;98905.44;4186580;28;20036;-70
2022/09/23 03:11:05;;;;;;;8.68;6.13;;;;;;;2.51;100.00;98907.84;4186664;28;20047;-70
2022/09/23 03:13:27;;;;;;;9.40;6.82;;;;;;;2.52;100.00;98906.72;4187123;28;20091;-71
2022/09/23 03:15:36;;;;;;;6.05;5.45;;;;;;;2.58;100.00;98909.31;4186563;28;20453;-70
2022/09/23 03:17:39;;;;;;;8.75;6.13;;;;;;;2.56;100.00;98904.16;4185739;28;20052;-70
2022/09/23 03:19:55;;;;;;;6.75;5.68;;;;;;;2.57;100.00;98913.97;4185866;28;20041;-70
2022/09/23 03:22:02;;;;;;;10.35;6.65;;;;;;;2.52;100.00;98895.78;4186973;28;20045;-70
2022/09/23 03:24:06;;;;;;;8.05;6.40;;;;;;;2.52;100.00;98901.25;4186468;28;20041;-70
2022/09/23 03:26:16;;;;;;;8.73;6.60;;;;;;;2.53;100.00;98912.97;4186568;28;20099;-71
2022/09/23 03:28:19;;;;;;;9.35;6.90;;;;;;;2.48;100.00;98905.75;4186176;28;20606;-71
2022/09/23 03:30:20;;;;;;;;;;;;;;;2.44;100.00;98907.47;4187218;28;20035;-70
2022/09/23 03:32:26;;;;;;;6.43;5.80;;;;;;;2.44;100.00;98909.41;4186628;28;19940;-70
2022/09/23 03:34:30;;;;;;;9.57;6.07;;;;;;;2.40;100.00;98892.03;4185046;28;20054;-70
2022/09/23 03:36:50;;;;;;;7.28;5.85;;;;;;;2.43;100.00;98897.69;4186492;28;20048;-70
2022/09/23 03:38:58;;;;;;;8.35;6.65;;;;;;;2.39;100.00;98893.16;4185845;28;20765;-70
2022/09/23 03:41:01;;;;;;;7.95;5.90;;;;;;;2.35;100.00;98889.44;4186538;28;20416;-70
2022/09/23 03:43:03;;;;;;;6.82;5.90;;;;;;;2.37;100.00;98889.94;4186717;28;20635;-70
2022/09/23 03:45:08;;;;;;;7.68;5.90;;;;;;;2.36;100.00;98882.88;4186071;28;20373;-70
2022/09/23 03:47:11;;;;;;;8.27;6.03;;;;;;;2.31;100.00;98888.44;4185990;28;20045;-70
2022/09/23 03:49:26;;;;;;;;;;;;;;;2.30;100.00;98886.84;4186355;28;20458;-70
2022/09/23 03:51:26;;;;;;;6.93;6.05;;;;;;;2.23;100.00;98881.81;4186703;28;19947;-70
2022/09/23 03:53:26;;;;;;;7.35;6.15;;;;;;;2.19;100.00;98881.66;4186640;28;20090;-70
2022/09/23 03:55:27;;;;;;;7.05;6.07;;;;;;;2.19;100.00;98884.38;4185686;28;20142;-70
2022/09/23 03:57:27;;;;;;;9.45;6.10;;;;;;;2.23;100.00;98874.47;4185797;28;20045;-70
2022/09/23 03:59:29;;;;;;;8.95;6.05;;;;;;;2.21;100.00;98882.13;4172104;28;20049;-70
2022/09/23 04:01:29;;;;;;;8.02;5.93;;;;;;;2.19;100.00;98878.13;4184119;28;20056;-70
2022/09/23 04:03:29;;;;;;;8.38;6.20;;;;;;;2.21;100.00;98881.34;4187772;28;20281;-70
2022/09/23 04:05:30;;;;;;;10.00;5.53;;;;;;;2.19;100.00;98886.31;4186574;28;20080;-70
2022/09/23 04:07:30;;;;;;;7.60;5.95;;;;;;;2.13;100.00;98882.91;4186070;28;20048;-70
2022/09/23 04:09:31;;;;;;;8.20;6.30;;;;;;;2.12;100.00;98877.75;4185442;28;20427;-70
2022/09/23 04:11:31;;;;;;;7.60;5.90;;;;;;;2.12;100.00;98881.28;4185231;28;20056;-70
2022/09/23 04:13:33;;;;;;;6.88;5.80;;;;;;;2.11;100.00;98876.16;4186177;28;20587;-70
2022/09/23 04:15:33;;;;;;;7.10;6.18;;;;;;;2.05;100.00;98869.19;4185167;28;20624;-70
2022/09/23 04:17:34;;;;;;;6.80;6.00;;;;;;;2.06;100.00;98868.06;4185288;28;20098;-70
2022/09/23 04:19:34;;;;;;;8.23;5.90;;;;;;;2.02;100.00;98861.66;4185807;28;20067;-70
2022/09/23 04:21:34;;;;;;;7.57;5.03;;;;;;;1.97;100.00;98866.09;4187055;28;20043;-70
2022/09/23 04:23:35;;;;;;;6.13;5.30;;;;;;;1.96;100.00;98874.59;4172065;28;20091;-70
2022/09/23 04:25:35;;;;;;;6.93;5.22;;;;;;;1.91;100.00;98863.84;4186410;28;20052;-70
2022/09/23 04:27:35;;;;;;;6.15;5.50;;;;;;;1.87;100.00;98851.91;4185813;28;20052;-70
2022/09/23 04:29:36;;;;;;;7.53;5.32;;;;;;;1.85;100.00;98848.72;4184897;28;20045;-70
2022/09/23 04:31:37;;;;;;;7.68;5.40;;;;;;;1.86;100.00;98859.31;4186402;28;20049;-70
2022/09/23 04:33:37;;;;;;;7.88;5.93;;;;;;;1.82;100.00;98855.59;4185319;28;20040;-70
2022/09/23 04:35:38;;;;;;;7.43;5.53;;;;;;;1.83;100.00;98857.22;4184669;28;20129;-70
2022/09/23 04:37:39;;;;;;;6.88;5.50;;;;;;;1.82;100.00;98850.16;4185633;28;20174;-70
2022/09/23 04:39:39;;;;;;;5.90;5.30;;;;;;;1.86;100.00;98848.38;4185250;28;20545;-70
2022/09/23 04:41:41;;;;;;;6.93;5.25;;;;;;;1.85;100.00;98845.97;4185795;28;20180;-70
2022/09/23 04:43:41;;;;;;;8.90;5.65;;;;;;;1.85;100.00;98849.50;4186236;28;20090;-70
2022/09/23 04:45:42;;;;;;;7.28;5.20;;;;;;;1.84;100.00;98847.09;4175681;28;20378;-70
2022/09/23 04:47:43;;;;;;;8.02;5.45;;;;;;;1.82;100.00;98844.69;4185137;28;20044;-70
2022/09/23 04:49:43;;;;;;;6.75;4.75;;;;;;;1.79;100.00;98848.03;4185815;28;20150;-70
2022/09/23 04:51:44;;;;;;;5.95;4.97;;;;;;;1.74;100.00;98842.72;4185769;28;20125;-70
2022/09/23 04:53:47;;;;;;;8.88;6.00;;;;;;;1.74;100.00;98848.16;4185367;28;20045;-70
2022/09/23 04:55:47;;;;;;;;;;;;;;;1.74;100.00;98848.16;4185577;28;20049;-70
2022/09/23 04:57:47;;;;;;;11.25;5.55;;;;;;;1.79;100.00;98849.94;4185896;28;19946;-70
2022/09/23 04:59:48;;;;;;;7.03;5.47;;;;;;;1.74;100.00;98858.25;4185149;28;20048;-70
2022/09/23 05:01:50;;;;;;;7.70;5.85;;;;;;;1.70;100.00;98855.34;4185356;28;20080;-70
2022/09/23 05:04:04;;;;;;;5.82;5.18;;;;;;;1.74;100.00;98853.63;4185753;28;20135;-70
2022/09/23 05:06:05;;;;;;;5.95;4.90;;;;;;;1.72;100.00;98855.03;4182620;28;20071;-70
2022/09/23 05:08:05;;;;;;;6.63;5.45;;;;;;;1.71;100.00;98856.16;4187623;28;20028;-70
2022/09/23 05:10:06;;;;;;;7.13;6.07;;;;;;;1.72;100.00;98864.00;4185342;28;20490;-70
2022/09/23 05:12:07;;;;;;;7.45;6.05;;;;;;;1.70;100.00;98860.78;4187229;28;20357;-70
2022/09/23 05:14:07;;;;;;;8.88;5.93;;;;;;;1.68;100.00;98863.84;4185415;28;20072;-70
2022/09/23 05:16:10;;;;;;;5.85;5.07;;;;;;;1.71;100.00;98861.59;4185398;28;20169;-70
2022/09/23 05:18:11;;;;;;;8.70;5.75;;;;;;;1.69;100.00;98861.91;4185986;28;20412;-70
2022/09/23 05:20:11;;;;;;;7.15;5.20;;;;;;;1.74;100.00;98866.44;4184322;28;20033;-70
2022/09/23 05:22:12;;;;;;;6.80;5.50;;;;;;;1.72;100.00;98860.47;4184915;28;20707;-70
2022/09/23 05:24:12;;;;;;;6.65;5.63;;;;;;;1.76;100.00;98861.50;4187458;28;20028;-70
2022/09/23 05:26:13;;;;;;;8.15;6.00;;;;;;;1.77;100.00;98863.09;4188231;28;20143;-70
2022/09/23 05:28:17;;;;;;;7.05;5.78;;;;;;;1.76;100.00;98869.66;4188521;28;20103;-70
2022/09/23 05:30:17;;;;;;;10.27;5.35;;;;;;;1.79;100.00;98856.19;4187607;28;20056;-70
2022/09/23 05:32:18;;;;;;;5.78;5.18;;;;;;;1.85;100.00;98862.34;4189219;28;20562;-70
2022/09/23 05:34:18;;;;;;;7.28;5.75;;;;;;;1.89;100.00;98861.41;4186736;28;20102;-70
2022/09/23 05:36:20;;;;;;;5.65;4.88;;;;;;;1.92;100.00;98865.44;4188783;28;20435;-70
2022/09/23 05:38:20;;;;;;;8.43;5.28;;;;;;;1.94;100.00;98857.75;4187053;28;20670;-70
2022/09/23 05:40:21;;;;;;;6.70;5.60;;;;;;;1.95;100.00;98859.34;4188436;28;20055;-70
2022/09/23 05:42:21;;;;;;;8.48;5.78;;;;;;;1.98;100.00;98861.44;4187594;28;20056;-70
2022/09/23 05:44:21;;;;;;;7.50;5.60;;;;;;;2.01;100.00;98854.59;4188210;28;20044;-70
2022/09/23 05:46:27;;;;;;;7.32;6.00;;;;;;;2.06;100.00;98857.97;4188030;28;20041;-70
2022/09/23 05:48:30;;;;;;;6.68;5.63;;;;;;;2.07;100.00;98858.78;4188065;28;20052;-70
2022/09/23 05:50:30;;;;;;;7.40;6.10;;;;;;;2.10;100.00;98863.63;4185679;28;20079;-70
2022/09/23 05:52:31;;;;;;;5.60;5.05;;;;;;;2.12;100.00;98862.19;4132033;28;20163;-70
2022/09/23 05:54:31;;;;;;;6.68;5.72;;;;;;;2.19;100.00;98859.00;4198890;28;20114;-70
2022/09/23 05:56:33;;;;;;;6.55;5.85;;;;;;;2.23;100.00;98857.25;4187822;28;20469;-70
2022/09/23 05:58:33;;;;;;;7.35;6.18;;;;;;;2.26;100.00;98867.56;4187492;28;20499;-70
2022/09/23 06:00:34;;;;;;;7.05;5.70;;;;;;;2.31;100.00;98861.94;4186901;28;20037;-70
2022/09/23 06:02:34;;;;;;;6.18;5.57;;;;;;;2.34;100.00;98858.59;4187939;28;20041;-70
2022/09/23 06:04:34;;;;;;;7.03;5.85;;;;;;;2.43;100.00;98864.09;4187792;28;20051;-70
2022/09/23 06:06:37;;;;;;;6.68;5.78;;;;;;;2.49;100.00;98857.38;4187028;28;20511;-70
2022/09/23 06:08:38;;;;;;;7.90;6.57;;;;;;;2.55;100.00;98856.09;4187367;28;20044;-70
2022/09/23 06:10:41;;;;;;;9.82;6.28;;;;;;;2.59;100.00;98848.91;4187884;28;20417;-70
2022/09/23 06:12:43;;;;;;;6.95;6.10;;;;;;;2.68;100.00;98855.19;4188036;28;20434;-70
2022/09/23 06:14:44;;;;;;;7.97;6.65;;;;;;;2.73;100.00;98860.53;4187192;28;20392;-70
2022/09/23 06:16:44;;;;;;;6.85;5.82;;;;;;;2.80;100.00;98855.38;4184874;28;20044;-70
2022/09/23 06:18:44;;;;;;;7.90;6.28;;;;;;;2.89;100.00;98858.13;4188590;28;20146;-70
2022/09/23 06:20:45;;;;;;;11.55;5.78;;;;;;;2.92;100.00;98846.59;4187593;28;20060;-70
2022/09/23 06:22:45;;;;;;;8.15;6.28;;;;;;;2.99;100.00;98859.78;4186803;28;20343;-70
2022/09/23 06:24:45;;;;;;;6.80;6.00;;;;;;;3.04;100.00;98860.41;4186584;28;20129;-70
2022/09/23 06:26:46;;;;;;;12.35;6.22;;;;;;;3.12;100.00;98855.28;4187647;28;20439;-70
2022/09/23 06:28:47;;;;;;;7.00;5.93;;;;;;;3.20;100.00;98859.97;4187462;28;20057;-70
2022/09/23 06:30:48;;;;;;;8.50;5.93;;;;;;;3.26;100.00;98855.97;4186075;28;20055;-70
2022/09/23 06:32:52;;;;;;;8.98;6.10;;;;;;;3.31;100.00;98853.88;4186037;28;20431;-70
2022/09/23 06:34:52;;;;;;;9.50;5.82;;;;;;;3.39;100.00;98849.50;4186642;28;20045;-70
2022/09/23 06:36:54;;;;;;;6.95;6.15;;;;;;;3.48;100.00;98849.53;4187110;28;20050;-70
2022/09/23 06:38:54;;;;;;;8.02;5.88;;;;;;;3.54;100.00;98851.78;4186660;28;20044;-70
2022/09/23 06:40:56;;;;;;;10.07;6.40;;;;;;;3.58;100.00;98843.75;4187937;28;20090;-70
2022/09/23 06:42:59;;;;;;;6.53;5.55;;;;;;;3.66;100.00;98851.94;4186747;28;20077;-70
2022/09/23 06:44:59;;;;;;;7.72;6.43;;;;;;;3.72;100.00;98855.28;4186706;28;20048;-70
2022/09/23 06:47:00;;;;;;;9.13;6.60;;;;;;;3.78;100.00;98845.00;4186023;28;20045;-70
2022/09/23 06:49:01;;;;;;;10.30;8.35;;;;;;;3.89;100.00;98854.50;4187019;28;20516;-70
2022/09/23 06:51:06;;;;;;;9.38;7.65;;;;;;;3.96;100.00;98849.31;4184893;28;20048;-70
2022/09/23 06:53:06;;;;;;;9.82;7.22;;;;;;;4.05;100.00;98850.09;4185074;28;20798;-70
2022/09/23 06:55:09;;;;;;;9.43;7.22;;;;;;;4.17;100.00;98863.91;4187100;28;20044;-70
2022/09/23 06:57:09;;;;;;;;;;;;;;;4.27;100.00;98856.47;4188287;28;20055;-70
2022/09/23 06:59:11;;;;;;;14.30;10.13;;;;;;;4.35;100.00;98858.38;4186535;28;20278;-70
2022/09/23 07:01:18;;;;;;;15.93;11.98;;;;;;;4.44;100.00;98848.19;4187069;28;20086;-71
2022/09/23 07:03:18;;;;;;;14.38;12.68;;;;;;;4.54;100.00;98866.22;4186627;28;20044;-70
2022/09/23 07:05:18;;;;;;;16.65;13.55;;;;;;;4.59;100.00;98864.09;4185415;28;20048;-71
2022/09/23 07:07:19;;;;;;;15.15;11.70;;;;;;;4.69;100.00;98858.25;4186575;28;20513;-70
2022/09/23 07:09:19;;;;;;;11.02;9.85;;;;;;;4.77;100.00;98864.81;4185751;28;20044;-70
2022/09/23 07:11:21;;;;;;;10.38;9.07;;;;;;;4.87;100.00;98863.63;4184358;28;20056;-70
2022/09/23 07:13:22;;;;;;;10.15;8.57;;;;;;;4.95;99.25;98857.31;4187841;28;20044;-70
2022/09/23 07:15:22;;;;;;;9.52;8.10;;;;;;;5.01;98.41;98848.56;4187003;28;20045;-70
2022/09/23 07:17:23;;;;;;;8.40;7.50;;;;;;;5.10;98.71;98853.97;4179707;28;20084;-70
2022/09/23 07:19:25;;;;;;;10.10;7.55;;;;;;;5.20;98.65;98852.78;4179702;28;20115;-70
2022/09/23 07:21:26;;;;;;;14.02;7.28;;;;;;;5.27;98.57;98855.81;4183134;28;20072;-70
2022/09/23 07:23:26;;;;;;;10.32;7.95;;;;;;;5.36;99.07;98856.53;4185483;28;20044;-70
2022/09/23 07:25:28;;;;;;;8.93;7.13;;;;;;;5.43;98.55;98859.56;4185291;28;20055;-70
2022/09/23 07:27:28;;;;;;;8.52;6.80;;;;;;;5.52;99.87;98854.81;4187360;28;20524;-70
2022/09/23 07:29:28;;;;;;;8.25;6.18;;;;;;;5.60;100.00;98858.63;4185226;28;20050;-70
2022/09/23 07:31:33;;;;;;;10.70;6.93;;;;;;;5.68;99.77;98859.69;4186216;28;20584;-71
2022/09/23 07:33:35;;;;;;;9.55;7.22;;;;;;;5.79;99.96;98869.09;4186028;28;20045;-71
2022/09/23 07:35:39;;;;;;;8.00;6.60;;;;;;;5.87;100.00;98859.97;4186526;28;20524;-70
2022/09/23 07:37:40;;;;;;;13.38;7.15;;;;;;;6.00;99.52;98864.41;4186678;28;20052;-70
2022/09/23 07:39:40;;;;;;;7.82;6.78;;;;;;;6.11;98.39;98868.34;4184771;28;20138;-69
2022/09/23 07:41:43;;;;;;;7.85;6.18;;;;;;;6.22;98.85;98862.44;4185689;28;20451;-70
2022/09/23 07:43:44;;;;;;;9.55;6.25;;;;;;;6.33;98.29;98867.16;4184417;28;20063;-70
2022/09/23 07:45:45;;;;;;;11.02;6.03;;;;;;;6.40;97.75;98861.91;4185479;28;20850;-70
2022/09/23 07:47:46;;;;;;;7.38;5.80;;;;;;;6.50;97.16;98865.34;4186368;28;20072;-70
2022/09/23 07:49:46;;;;;;;10.90;6.97;;;;;;;6.56;97.13;98853.78;4185176;28;20736;-70
2022/09/23 07:51:47;;;;;;;7.78;5.80;;;;;;;6.67;96.68;98859.63;4186146;28;20052;-70
2022/09/23 07:53:50;;;;;;;7.32;5.78;;;;;;;6.80;97.49;98861.25;4185855;28;20052;-70
2022/09/23 07:55:54;;;;;;;6.18;5.53;;;;;;;6.93;97.27;98849.09;4186305;28;20407;-70
2022/09/23 07:57:54;;;;;;;7.03;5.80;;;;;;;7.09;97.19;98853.88;4184523;28;20400;-70
2022/09/23 07:59:55;;;;;;;5.80;5.05;;;;;;;7.19;90.60;98845.97;4184971;28;20045;-70
2022/09/23 08:01:56;;;;;;;10.65;5.68;;;;;;;7.37;93.89;98849.28;4186389;28;20056;-70
2022/09/23 08:03:58;;;;;;;6.53;4.63;;;;;;;7.51;93.37;98840.63;4186292;28;20133;-70
2022/09/23 08:06:10;;;;;;;8.30;5.35;;;;;;;7.68;94.06;98836.78;4185138;28;20070;-70
2022/09/23 08:08:12;;;;;;;8.50;5.40;;;;;;;7.83;93.72;98836.03;4185145;28;20045;-70
2022/09/23 08:10:13;;;;;;;6.35;5.30;;;;;;;7.97;94.07;98830.13;4184756;28;20650;-71
2022/09/23 08:12:16;;;;;;;8.43;5.97;;;;;;;8.12;94.69;98837.63;4183347;28;20064;-70
2022/09/23 08:14:17;;;;;;;13.85;5.95;;;;;;;8.32;93.54;98833.81;4180760;28;20111;-70
2022/09/23 08:16:18;;;;;;;7.20;4.90;;;;;;;8.52;94.27;98834.72;4185596;28;20090;-70
2022/09/23 08:18:19;;;;;;;5.93;5.10;;;;;;;8.65;92.15;98835.47;4186625;28;20187;-70
2022/09/23 08:22:38;;;;;;;8.88;5.53;;;;;;;8.88;93.40;98830.09;4184371;28;20107;-70
2022/09/23 08:24:38;;;;;;;6.68;4.93;;;;;;;9.00;93.69;98839.06;4183974;28;20045;-70
2022/09/23 08:26:39;;;;;;;7.13;5.50;;;;;;;9.09;92.62;98825.06;4184290;28;20146;-70
2022/09/23 08:28:42;;;;;;;7.72;4.90;;;;;;;9.21;90.94;98815.88;4185524;28;20044;-70
2022/09/23 08:30:44;;;;;;;7.30;4.80;;;;;;;9.30;90.29;98819.22;4171292;28;20056;-70
2022/09/23 08:32:44;;;;;;;5.22;4.72;;;;;;;9.41;90.41;98825.78;4182635;28;20126;-71
2022/09/23 08:34:44;;;;;;;6.85;4.60;;;;;;;9.50;90.09;98809.78;4184367;28;20472;-70
2022/09/23 08:36:45;;;;;;;5.78;4.78;;;;;;;9.61;89.76;98825.81;4178867;28;20127;-71
2022/09/23 08:38:46;;;;;;;6.13;4.78;;;;;;;9.71;87.05;98814.16;4178068;28;20159;-70
2022/09/23 08:40:49;;;;;;;5.38;4.57;;;;;;;9.77;86.60;98813.53;4184746;28;20144;-71
2022/09/23 08:42:49;;;;;;;5.70;4.05;;;;;;;9.83;86.73;98803.75;4186385;28;20041;-71
2022/09/23 08:44:54;;;;;;;4.20;3.70;;;;;;;9.90;86.56;98805.06;4186594;28;20047;-71
2022/09/23 08:47:13;;;;;;;5.57;4.18;;;;;;;9.96;85.94;98801.66;4185549;28;20067;-71
2022/09/23 08:49:24;;;;;;;5.75;4.00;;;;;;;10.09;86.09;98797.56;4182600;28;20036;-71
2022/09/23 08:51:32;;;;;;;4.60;3.95;;;;;;;10.26;84.35;98801.84;4186372;28;20063;-71
2022/09/23 08:53:36;;;;;;;5.47;4.60;;;;;;;10.33;84.26;98796.41;4185496;28;20040;-71
2022/09/23 08:55:45;;;;;;;5.95;4.57;;;;;;;10.42;83.37;98798.94;4185763;28;20045;-71
2022/09/23 08:58:06;;;;;;;6.63;3.88;;;;;;;10.48;82.73;98799.44;4186667;28;20084;-71
2022/09/23 09:00:14;;;;;;;4.50;3.33;;;;;;;10.51;82.17;98793.97;4186508;28;20040;-71
2022/09/23 09:02:18;;;;;;;4.70;3.65;;;;;;;10.59;81.66;98792.09;4188364;28;20473;-71
2022/09/23 09:04:34;;;;;;;8.60;5.30;;;;;;;10.69;80.84;98795.06;4184881;28;20126;-71
2022/09/23 09:06:53;;;;;;;5.95;4.20;;;;;;;10.73;81.03;98786.78;4184426;28;20048;-71
2022/09/23 09:08:57;;;;;;;5.30;4.00;;;;;;;10.81;81.26;98790.47;4185546;28;20378;-71
2022/09/23 09:10:58;;;;;;;5.47;3.88;;;;;;;10.86;79.72;98790.16;4182178;28;20052;-71
2022/09/23 09:13:06;;;;;;;6.18;4.40;;;;;;;10.94;80.15;98789.91;4185416;28;20087;-71
2022/09/23 09:15:14;;;;;;;6.78;4.25;;;;;;;11.05;79.12;98789.25;4187989;28;20028;-71
2022/09/23 09:17:39;;;;;;;8.10;4.97;;;;;;;11.11;77.76;98794.09;4185872;28;20040;-71
2022/09/23 09:19:52;;;;;;;5.45;2.78;;;;;;;11.35;76.72;98792.84;4175182;28;20085;-71
2022/09/23 09:21:52;;;;;;;;;;;;;;;11.45;76.23;98786.66;4188874;28;20049;-71
2022/09/23 09:23:55;;;;;;;4.93;2.50;;;;;;;11.50;76.82;98783.56;4186262;28;19994;-71
2022/09/23 09:26:00;;;;;;;;;;;;;;;11.68;73.05;98791.28;4189579;28;20079;-71
2022/09/23 09:28:07;;;;;;;4.30;2.60;;;;;;;11.73;73.10;98786.19;4187692;28;20034;-71
2022/09/23 09:30:13;;;;;;;4.38;3.20;;;;;;;11.83;74.17;98787.50;4185388;28;20102;-71
2022/09/23 09:32:34;;;;;;;4.43;3.20;;;;;;;11.98;71.05;98788.47;4186835;28;20033;-71
2022/09/23 09:34:40;;;;;;;3.97;2.72;;;;;;;12.06;70.57;98790.16;4187662;28;20676;-71
2022/09/23 09:37:00;;;;;;;4.18;2.53;;;;;;;12.18;68.65;98781.56;4186612;28;20040;-71
2022/09/23 09:39:01;;;;;;;4.40;2.92;;;;;;;12.22;69.46;98785.16;4186608;28;20040;-71
2022/09/23 09:41:12;;;;;;;2.92;2.63;;;;;;;12.27;69.91;98782.06;4187376;28;20088;-71
2022/09/23 09:43:23;;;;;;;5.35;3.55;;;;;;;12.44;69.03;98777.03;4187637;28;20422;-71
2022/09/23 09:45:41;;;;;;;4.97;3.00;;;;;;;12.57;68.93;98778.31;4188135;28;20040;-71
2022/09/23 09:48:02;;;;;;;4.88;3.63;;;;;;;12.71;68.93;98778.44;4188272;28;20048;-71
2022/09/23 09:50:09;;;;;;;4.25;3.15;;;;;;;12.75;68.14;98773.75;4186854;28;20087;-71
2022/09/23 09:52:21;;;;;;;5.15;3.80;;;;;;;12.78;66.66;98769.38;4187159;28;20028;-71